Terminal Aerodrome Forecast
Issued by NWS Brownsville, TX

Home | Current Version | Previous Version | Text Only | Print | Product List | Glossary On
Versions: 1 2 3 4 5 6 7 8 9 10 11 12 13 14
000
FTUS44 KBRO 271740
TAFMFE
TAF
KMFE 271740Z 2718/2818 08007KT P6SM SCT050
     FM272200 10012KT P6SM SCT050
     FM280500 00000KT P6SM FEW050
     FM281600 14007KT P6SM SCT050=

USA.gov is the U.S. government's official web portal to all federal, state and local government web resources and services.